createdAt,value
2022-08-23T00:02:22.929Z,21.14
2022-08-23T00:05:08.456Z,21.05
2022-08-23T00:07:39.213Z,20.80
2022-08-23T00:10:09.227Z,20.80
2022-08-23T00:12:36.491Z,20.63
2022-08-23T00:15:08.788Z,20.64
2022-08-23T00:17:39.557Z,20.57
2022-08-23T00:20:08.340Z,20.36
2022-08-23T00:22:37.171Z,20.18
2022-08-23T00:25:06.559Z,20.10
2022-08-23T00:27:34.124Z,20.21
2022-08-23T00:30:01.654Z,20.10
2022-08-23T00:32:33.123Z,20.06
2022-08-23T00:35:01.557Z,20.07
2022-08-23T00:37:29.904Z,20.05
2022-08-23T00:39:56.462Z,20.01
2022-08-23T00:42:41.625Z,19.99
2022-08-23T00:45:28.973Z,20.13
2022-08-23T00:47:55.948Z,19.98
2022-08-23T00:50:35.303Z,19.97
2022-08-23T00:53:12.910Z,19.95
2022-08-23T00:55:42.757Z,20.06
2022-08-23T00:58:09.967Z,19.94
2022-08-23T01:00:37.187Z,20.08
2022-08-23T01:03:07.980Z,20.02
2022-08-23T01:05:45.775Z,20.07
2022-08-23T01:08:12.330Z,20.01
2022-08-23T01:10:47.978Z,20.11
2022-08-23T01:13:19.466Z,20.12
2022-08-23T01:15:50.665Z,20.14
2022-08-23T01:18:22.329Z,20.20
2022-08-23T01:20:56.565Z,20.18
2022-08-23T01:23:37.617Z,20.17
2022-08-23T01:26:05.274Z,20.07
2022-08-23T01:28:33.134Z,20.21
2022-08-23T01:31:00.916Z,20.07
2022-08-23T01:33:29.868Z,20.17
2022-08-23T01:35:58.746Z,20.23
2022-08-23T01:38:28.681Z,20.10
2022-08-23T01:41:00.077Z,20.13
2022-08-23T01:43:28.888Z,20.08
2022-08-23T01:45:55.846Z,20.25
2022-08-23T01:48:23.906Z,20.06
2022-08-23T01:50:50.734Z,20.15
2022-08-23T01:53:17.519Z,20.04
2022-08-23T01:55:48.371Z,20.18
2022-08-23T01:58:17.291Z,20.17
2022-08-23T02:00:44.545Z,20.07
2022-08-23T02:03:13.477Z,20.05
2022-08-23T02:05:41.412Z,20.10
2022-08-23T02:08:28.787Z,20.05
2022-08-23T02:10:56.951Z,20.01
2022-08-23T02:13:25.922Z,20.01
2022-08-23T02:15:52.746Z,19.95
2022-08-23T02:18:21.112Z,19.93
2022-08-23T02:20:51.613Z,19.97
2022-08-23T02:23:20.358Z,19.95
2022-08-23T02:25:46.893Z,20.00
2022-08-23T02:28:14.751Z,19.97
2022-08-23T02:30:41.480Z,20.06
2022-08-23T02:33:09.886Z,19.98
2022-08-23T02:35:37.699Z,20.07
2022-08-23T02:38:09.412Z,19.97
2022-08-23T02:40:36.368Z,19.91
2022-08-23T02:43:04.789Z,19.92
2022-08-23T02:45:33.005Z,19.98
2022-08-23T02:48:01.093Z,19.94
2022-08-23T02:50:36.069Z,19.93
2022-08-23T02:53:04.406Z,19.94
2022-08-23T02:55:33.164Z,19.91
2022-08-23T02:58:01.972Z,19.89
2022-08-23T03:00:30.418Z,19.85
2022-08-23T03:02:58.090Z,19.85
2022-08-23T03:05:25.494Z,19.80
2022-08-23T03:07:52.170Z,19.79
2022-08-23T03:10:21.777Z,19.86
2022-08-23T03:12:54.808Z,19.76
2022-08-23T03:15:21.472Z,19.87
2022-08-23T03:17:48.984Z,19.74
2022-08-23T03:20:23.352Z,19.78
2022-08-23T03:22:54.718Z,19.76
2022-08-23T03:25:26.426Z,19.65
2022-08-23T03:28:12.019Z,19.68
2022-08-23T03:30:43.293Z,19.70
2022-08-23T03:33:10.505Z,19.69
2022-08-23T03:35:37.338Z,19.69
2022-08-23T03:38:04.454Z,19.73
2022-08-23T03:40:31.723Z,19.87
2022-08-23T03:42:59.213Z,19.70
2022-08-23T03:45:29.308Z,19.71
2022-08-23T03:47:56.393Z,19.78
2022-08-23T03:50:23.098Z,19.80
2022-08-23T03:52:51.017Z,19.70
2022-08-23T03:55:18.418Z,19.59
2022-08-23T03:57:49.035Z,19.61
2022-08-23T04:00:20.375Z,19.66
2022-08-23T04:02:49.497Z,19.63
2022-08-23T04:05:23.116Z,19.73
2022-08-23T04:08:10.171Z,19.70
2022-08-23T04:10:40.830Z,19.65
2022-08-23T04:13:09.131Z,19.68
2022-08-23T04:15:36.126Z,19.60
2022-08-23T04:18:03.082Z,19.48
2022-08-23T04:20:30.223Z,19.44
2022-08-23T04:23:00.562Z,19.40
2022-08-23T04:25:35.505Z,19.48
2022-08-23T04:28:04.237Z,19.41
2022-08-23T04:30:32.993Z,19.38
2022-08-23T04:33:01.694Z,19.38
2022-08-23T04:35:30.186Z,19.47
2022-08-23T04:37:56.984Z,19.38
2022-08-23T04:40:42.684Z,19.49
2022-08-23T04:43:09.835Z,19.44
2022-08-23T04:45:39.032Z,19.37
2022-08-23T04:48:10.475Z,19.35
2022-08-23T04:50:41.335Z,19.43
2022-08-23T04:53:18.285Z,19.30
2022-08-23T04:55:55.940Z,19.41
2022-08-23T04:58:22.562Z,19.43
2022-08-23T05:00:52.552Z,19.33
2022-08-23T05:03:24.299Z,19.30
2022-08-23T05:05:52.741Z,19.38
2022-08-23T05:08:22.349Z,19.34
2022-08-23T05:10:48.901Z,19.42
2022-08-23T05:13:15.959Z,19.40
2022-08-23T05:15:43.658Z,19.39
2022-08-23T05:18:10.715Z,19.47
2022-08-23T05:20:39.322Z,19.41
2022-08-23T05:23:05.997Z,19.47
2022-08-23T05:25:52.422Z,19.48
2022-08-23T05:28:33.465Z,19.49
2022-08-23T05:31:17.649Z,19.55
2022-08-23T05:33:51.913Z,19.66
2022-08-23T05:36:35.347Z,19.70
2022-08-23T05:39:01.875Z,19.62
2022-08-23T05:41:37.675Z,19.74
2022-08-23T05:44:06.862Z,19.73
2022-08-23T05:46:34.421Z,19.95
2022-08-23T05:49:21.087Z,19.95
2022-08-23T05:51:51.639Z,20.01
2022-08-23T05:54:20.421Z,19.93
2022-08-23T05:56:59.346Z,19.97
2022-08-23T05:59:25.860Z,20.01
2022-08-23T06:01:52.766Z,20.01
2022-08-23T06:04:19.969Z,20.07
2022-08-23T06:06:48.454Z,19.91
2022-08-23T06:09:18.242Z,19.96
2022-08-23T06:11:46.651Z,20.05
2022-08-23T06:14:14.442Z,20.05
2022-08-23T06:16:46.496Z,20.08
2022-08-23T06:19:17.493Z,20.18
2022-08-23T06:21:47.815Z,20.27
2022-08-23T06:24:19.551Z,20.30
2022-08-23T06:26:54.085Z,20.30
2022-08-23T06:29:23.686Z,20.42
2022-08-23T06:32:10.239Z,20.50
2022-08-23T06:34:43.806Z,20.46
2022-08-23T06:37:43.755Z,20.52
2022-08-23T06:40:39.674Z,20.45
2022-08-23T06:43:40.183Z,20.59
2022-08-23T06:46:23.535Z,20.66
2022-08-23T06:48:51.736Z,20.64
2022-08-23T06:51:23.763Z,20.62
2022-08-23T06:54:07.544Z,20.63
2022-08-23T06:56:49.331Z,20.70
2022-08-23T06:59:21.406Z,20.70
2022-08-23T07:02:09.427Z,20.80
2022-08-23T07:04:55.833Z,20.98
2022-08-23T07:07:37.608Z,21.12
2022-08-23T07:10:11.362Z,21.20
2022-08-23T07:12:42.089Z,21.24
2022-08-23T07:15:11.563Z,21.27
2022-08-23T07:17:39.593Z,21.39
2022-08-23T07:20:07.444Z,21.45
2022-08-23T07:22:36.478Z,21.58
2022-08-23T07:25:04.540Z,21.72
2022-08-23T07:27:33.323Z,21.91
2022-08-23T07:30:07.059Z,22.02
2022-08-23T07:32:35.846Z,22.08
2022-08-23T07:35:22.225Z,22.16
2022-08-23T07:37:51.334Z,22.18
2022-08-23T07:40:20.504Z,22.19
2022-08-23T07:42:56.965Z,22.27
2022-08-23T07:45:26.042Z,22.42
2022-08-23T07:47:56.797Z,22.48
2022-08-23T07:50:25.511Z,22.49
2022-08-23T07:53:00.560Z,22.51
2022-08-23T07:55:32.237Z,22.60
2022-08-23T07:58:09.145Z,22.69
2022-08-23T08:00:48.897Z,22.81
2022-08-23T08:03:35.873Z,22.91
2022-08-23T08:06:42.756Z,23.10
2022-08-23T08:09:10.713Z,23.18
2022-08-23T08:11:37.817Z,23.22
2022-08-23T08:14:08.292Z,23.21
2022-08-23T08:16:49.363Z,23.30
2022-08-23T08:19:25.190Z,23.34
2022-08-23T08:22:13.028Z,23.45
2022-08-23T08:25:06.840Z,23.59
2022-08-23T08:27:36.069Z,23.67
2022-08-23T08:30:05.721Z,23.80
2022-08-23T08:32:33.111Z,23.79
2022-08-23T08:35:00.442Z,23.80
2022-08-23T08:37:32.107Z,23.99
2022-08-23T08:39:59.889Z,24.15
2022-08-23T08:43:00.568Z,24.41
2022-08-23T08:45:38.385Z,24.34
2022-08-23T08:48:13.305Z,24.42
2022-08-23T08:50:52.091Z,24.61
2022-08-23T08:53:25.409Z,24.67
2022-08-23T08:56:29.740Z,24.63
2022-08-23T08:59:36.870Z,24.75
2022-08-23T09:02:07.474Z,24.92
2022-08-23T09:05:04.803Z,25.07
2022-08-23T09:07:56.495Z,25.28
2022-08-23T09:10:53.247Z,25.44
2022-08-23T09:13:53.681Z,25.62
2022-08-23T09:16:39.093Z,25.56
2022-08-23T09:19:09.794Z,25.57
2022-08-23T09:21:54.210Z,25.66
2022-08-23T09:24:20.938Z,25.60
2022-08-23T09:27:02.107Z,25.76
2022-08-23T09:29:33.545Z,25.93
2022-08-23T09:32:03.958Z,26.03
2022-08-23T09:34:35.061Z,26.22
2022-08-23T09:37:18.487Z,26.21
2022-08-23T09:39:51.411Z,26.33
2022-08-23T09:42:39.532Z,26.35
2022-08-23T09:45:37.070Z,26.47
2022-08-23T09:48:07.209Z,26.58
2022-08-23T09:50:54.740Z,26.74
2022-08-23T09:53:30.048Z,26.82
2022-08-23T09:56:11.052Z,26.97
2022-08-23T09:58:44.408Z,27.11
2022-08-23T10:01:24.106Z,27.05
2022-08-23T10:04:25.677Z,27.16
2022-08-23T10:06:52.974Z,27.12
2022-08-23T10:09:30.229Z,27.27
2022-08-23T10:11:59.413Z,27.44
2022-08-23T10:17:34.227Z,27.48
2022-08-23T10:20:22.074Z,27.70
2022-08-23T10:23:04.845Z,27.85
2022-08-23T10:25:52.705Z,27.85
2022-08-23T10:29:00.565Z,27.19
2022-08-23T10:31:53.245Z,27.43
2022-08-23T10:34:41.372Z,27.59
2022-08-23T10:37:14.385Z,27.76
2022-08-23T10:39:56.675Z,28.04
2022-08-23T10:42:53.291Z,28.13
2022-08-23T10:45:28.666Z,28.25
2022-08-23T10:48:13.765Z,28.10
2022-08-23T10:50:52.045Z,27.98
2022-08-23T10:53:27.140Z,28.08
2022-08-23T10:56:04.441Z,28.10
2022-08-23T10:58:43.427Z,28.20
2022-08-23T11:01:26.855Z,28.44
2022-08-23T11:04:16.699Z,28.69
2022-08-23T11:07:00.501Z,28.76
2022-08-23T11:09:38.154Z,28.79
2022-08-23T11:12:21.042Z,28.59
2022-08-23T11:15:07.267Z,28.70
2022-08-23T11:17:49.417Z,28.99
2022-08-23T11:20:51.002Z,28.77
2022-08-23T11:23:59.372Z,28.93
2022-08-23T11:26:36.759Z,29.14
2022-08-23T11:29:06.542Z,29.18
2022-08-23T11:31:47.233Z,29.26
2022-08-23T11:34:29.501Z,29.43
2022-08-23T11:37:19.805Z,29.51
2022-08-23T11:39:57.790Z,29.40
2022-08-23T11:42:46.762Z,29.41
2022-08-23T11:45:37.593Z,29.26
2022-08-23T11:48:27.387Z,29.16
2022-08-23T11:50:59.995Z,29.25
2022-08-23T11:53:54.772Z,29.56
2022-08-23T11:56:36.664Z,29.54
2022-08-23T11:59:20.221Z,29.66
2022-08-23T12:01:47.266Z,29.81
2022-08-23T12:04:37.880Z,29.80
2022-08-23T12:07:12.532Z,29.84
2022-08-23T12:09:41.937Z,29.95
2022-08-23T12:12:39.278Z,30.16
2022-08-23T12:15:11.970Z,30.11
2022-08-23T12:17:41.776Z,30.05
2022-08-23T12:20:16.803Z,30.18
2022-08-23T12:22:59.770Z,30.16
2022-08-23T12:25:30.053Z,30.18
2022-08-23T12:28:22.052Z,30.21
2022-08-23T12:31:08.047Z,29.96
2022-08-23T12:34:12.346Z,29.89
2022-08-23T12:37:09.675Z,29.92
2022-08-23T12:39:40.019Z,29.97
2022-08-23T12:42:15.539Z,30.19
2022-08-23T12:44:45.638Z,30.20
2022-08-23T12:47:17.011Z,30.34
2022-08-23T12:49:56.007Z,30.30
2022-08-23T12:52:26.471Z,30.22
2022-08-23T12:54:54.990Z,30.36
2022-08-23T12:57:30.758Z,30.47
2022-08-23T13:00:17.449Z,30.63
2022-08-23T13:02:51.516Z,30.82
2022-08-23T13:05:32.405Z,31.01
2022-08-23T13:08:04.268Z,30.92
2022-08-23T13:10:31.613Z,30.98
2022-08-23T13:12:58.612Z,31.08
2022-08-23T13:15:52.166Z,31.03
2022-08-23T13:18:30.191Z,31.04
2022-08-23T13:21:37.493Z,31.09
2022-08-23T13:24:39.035Z,30.83
2022-08-23T13:27:24.611Z,30.69
2022-08-23T13:29:56.930Z,30.46
2022-08-23T13:32:30.747Z,30.40
2022-08-23T13:35:25.269Z,30.69
2022-08-23T13:37:55.469Z,30.78
2022-08-23T13:40:26.271Z,30.67
2022-08-23T13:43:05.193Z,30.87
2022-08-23T13:45:46.273Z,30.80
2022-08-23T13:48:28.935Z,30.92
2022-08-23T13:51:38.889Z,30.69
2022-08-23T13:54:08.452Z,30.76
2022-08-23T13:56:48.201Z,30.78
2022-08-23T13:59:36.535Z,30.90
2022-08-23T14:02:07.269Z,30.89
2022-08-23T14:04:37.704Z,30.99
2022-08-23T14:07:05.356Z,30.67
2022-08-23T14:09:33.701Z,30.52
2022-08-23T14:12:14.827Z,30.81
2022-08-23T14:14:42.773Z,30.80
2022-08-23T14:17:12.978Z,30.96
2022-08-23T14:22:32.550Z,30.89
2022-08-23T14:25:05.117Z,30.78
2022-08-23T14:27:32.703Z,30.79
2022-08-23T14:30:01.070Z,30.76
2022-08-23T14:32:29.035Z,30.96
2022-08-23T14:34:56.068Z,31.09
2022-08-23T14:40:10.078Z,30.91
2022-08-23T14:42:36.735Z,30.96
2022-08-23T14:45:05.441Z,31.02
2022-08-23T14:47:32.495Z,30.91
2022-08-23T14:49:59.829Z,30.85
2022-08-23T14:52:26.454Z,30.89
2022-08-23T14:54:52.895Z,30.69
2022-08-23T14:57:26.811Z,30.67
2022-08-23T14:59:55.484Z,30.55
2022-08-23T15:02:25.137Z,30.70
2022-08-23T15:04:53.172Z,30.83
2022-08-23T15:07:21.991Z,31.11
2022-08-23T15:09:50.282Z,30.89
2022-08-23T15:15:12.998Z,30.57
2022-08-23T15:17:58.722Z,30.48
2022-08-23T15:20:31.128Z,30.42
2022-08-23T15:22:58.246Z,30.48
2022-08-23T15:25:29.948Z,30.33
2022-08-23T15:27:56.805Z,30.40
2022-08-23T15:30:23.945Z,30.41
2022-08-23T15:32:54.688Z,30.39
2022-08-23T15:35:24.950Z,30.41
2022-08-23T15:37:53.541Z,30.45
2022-08-23T15:40:21.034Z,30.52
2022-08-23T15:42:47.801Z,30.38
2022-08-23T15:45:14.756Z,30.31
2022-08-23T15:47:54.011Z,30.26
2022-08-23T15:50:27.090Z,30.24
2022-08-23T15:52:54.186Z,30.08
2022-08-23T15:55:21.339Z,29.94
2022-08-23T15:57:50.569Z,30.06
2022-08-23T16:00:22.450Z,30.19
2022-08-23T16:03:19.044Z,30.15
2022-08-23T16:05:38.415Z,30.08
2022-08-23T16:08:07.205Z,29.86
2022-08-23T16:10:35.167Z,29.71
2022-08-23T16:13:03.830Z,29.69
2022-08-23T16:15:31.155Z,29.81
2022-08-23T16:17:57.636Z,29.72
2022-08-23T16:20:24.292Z,29.80
2022-08-23T16:22:50.743Z,29.79
2022-08-23T16:25:17.744Z,29.75
2022-08-23T16:27:44.241Z,29.71
2022-08-23T16:30:13.089Z,29.73
2022-08-23T16:32:39.817Z,29.58
2022-08-23T16:35:07.617Z,29.57
2022-08-23T16:37:36.176Z,29.43
2022-08-23T16:40:08.472Z,29.35
2022-08-23T16:42:35.217Z,29.35
2022-08-23T16:45:02.147Z,29.38
2022-08-23T16:47:33.655Z,29.22
2022-08-23T16:50:00.328Z,29.15
2022-08-23T16:52:34.824Z,29.22
2022-08-23T16:55:10.801Z,29.06
2022-08-23T16:57:37.694Z,29.01
2022-08-23T17:00:06.913Z,29.01
2022-08-23T17:02:37.243Z,28.92
2022-08-23T17:05:06.682Z,28.82
2022-08-23T17:07:33.518Z,28.83
2022-08-23T17:10:00.995Z,28.75
2022-08-23T17:12:27.573Z,28.62
2022-08-23T17:14:57.102Z,28.54
2022-08-23T17:17:24.439Z,28.58
2022-08-23T17:19:50.950Z,28.35
2022-08-23T17:22:18.858Z,28.36
2022-08-23T17:24:45.357Z,28.18
2022-08-23T17:27:15.846Z,28.06
2022-08-23T17:29:46.378Z,27.99
2022-08-23T17:32:13.108Z,27.93
2022-08-23T17:34:39.702Z,28.01
2022-08-23T17:37:17.762Z,27.91
2022-08-23T17:39:44.409Z,27.90
2022-08-23T17:42:10.915Z,27.64
2022-08-23T17:44:37.619Z,27.60
2022-08-23T17:47:07.885Z,27.46
2022-08-23T17:49:34.561Z,27.37
2022-08-23T17:52:03.810Z,27.27
2022-08-23T17:54:33.373Z,27.23
2022-08-23T17:57:01.306Z,27.13
2022-08-23T17:59:38.362Z,27.11
2022-08-23T18:02:07.918Z,27.01
2022-08-23T18:04:34.488Z,27.10
2022-08-23T18:07:02.127Z,26.98
2022-08-23T18:09:29.318Z,26.89
2022-08-23T18:11:56.628Z,26.67
2022-08-23T18:14:23.395Z,26.75
2022-08-23T18:16:51.513Z,26.75
2022-08-23T18:19:18.227Z,26.52
2022-08-23T18:21:45.208Z,26.39
2022-08-23T18:24:11.667Z,26.35
2022-08-23T18:26:57.671Z,26.25
2022-08-23T18:29:24.883Z,26.17
2022-08-23T18:31:51.507Z,26.07
2022-08-23T18:34:18.905Z,26.13
2022-08-23T18:36:45.410Z,25.99
2022-08-23T18:39:14.609Z,26.11
2022-08-23T18:41:41.973Z,25.99
2022-08-23T18:44:08.685Z,25.93
2022-08-23T18:46:40.048Z,25.85
2022-08-23T18:49:09.010Z,25.71
2022-08-23T18:51:36.244Z,25.60
2022-08-23T18:54:03.151Z,25.51
2022-08-23T18:56:29.958Z,25.45
2022-08-23T18:58:56.443Z,25.42
2022-08-23T19:01:36.255Z,25.45
2022-08-23T19:04:05.303Z,25.31
2022-08-23T19:06:32.162Z,25.21
2022-08-23T19:09:01.112Z,25.19
2022-08-23T19:11:30.010Z,25.16
2022-08-23T19:13:58.001Z,25.08
2022-08-23T19:16:26.536Z,25.01
2022-08-23T19:18:54.750Z,24.95
2022-08-23T19:21:23.479Z,25.01
2022-08-23T19:23:52.346Z,24.86
2022-08-23T19:26:30.278Z,24.83
2022-08-23T19:28:57.416Z,24.82
2022-08-23T19:31:25.210Z,25.03
2022-08-23T19:33:51.770Z,24.75
2022-08-23T19:36:44.714Z,24.84
2022-08-23T19:39:08.542Z,24.72
2022-08-23T19:41:38.384Z,24.72
2022-08-23T19:44:07.929Z,24.62
2022-08-23T19:47:00.415Z,24.47
2022-08-23T19:49:28.257Z,24.48
2022-08-23T19:51:55.770Z,24.46
2022-08-23T19:54:22.515Z,24.64
2022-08-23T19:56:57.613Z,24.45
2022-08-23T19:59:31.180Z,24.47
2022-08-23T20:01:59.402Z,24.39
2022-08-23T20:04:29.383Z,24.33
2022-08-23T20:06:57.677Z,24.45
2022-08-23T20:09:26.597Z,24.45
2022-08-23T20:11:53.100Z,24.33
2022-08-23T20:14:21.945Z,24.27
2022-08-23T20:16:50.125Z,24.23
2022-08-23T20:19:18.859Z,24.13
2022-08-23T20:21:45.306Z,24.13
2022-08-23T20:24:15.318Z,24.04
2022-08-23T20:26:47.667Z,24.15
2022-08-23T20:29:21.653Z,24.05
2022-08-23T20:31:55.373Z,24.12
2022-08-23T20:34:23.294Z,24.07
2022-08-23T20:36:55.993Z,24.25
2022-08-23T20:39:24.188Z,24.11
2022-08-23T20:41:51.482Z,24.01
2022-08-23T20:44:20.122Z,24.02
2022-08-23T20:46:50.704Z,24.19
2022-08-23T20:49:21.105Z,24.02
2022-08-23T20:51:48.250Z,24.08
2022-08-23T20:54:16.713Z,24.02
2022-08-23T20:56:43.370Z,24.03
2022-08-23T20:59:10.105Z,24.05
2022-08-23T21:01:36.763Z,23.95
2022-08-23T21:04:03.945Z,23.88
2022-08-23T21:06:45.112Z,23.87
2022-08-23T21:09:16.875Z,23.96
2022-08-23T21:11:44.003Z,23.79
2022-08-23T21:14:10.464Z,23.81
2022-08-23T21:16:37.412Z,23.70
2022-08-23T21:19:04.418Z,23.84
2022-08-23T21:21:31.306Z,23.81
2022-08-23T21:23:57.850Z,23.73
2022-08-23T21:26:24.735Z,23.58
2022-08-23T21:28:51.748Z,23.55
2022-08-23T21:31:21.633Z,23.44
2022-08-23T21:33:48.795Z,23.44
2022-08-23T21:36:17.254Z,23.47
2022-08-23T21:38:43.866Z,23.35
2022-08-23T21:41:30.498Z,23.20
2022-08-23T21:43:57.116Z,23.16
2022-08-23T21:46:23.700Z,23.08
2022-08-23T21:48:50.993Z,22.97
2022-08-23T21:51:18.777Z,22.99
2022-08-23T21:53:45.430Z,22.90
2022-08-23T21:56:11.986Z,22.91
2022-08-23T21:58:38.415Z,22.88
2022-08-23T22:01:05.435Z,22.77
2022-08-23T22:03:32.586Z,22.68
2022-08-23T22:05:59.299Z,22.67
2022-08-23T22:08:25.794Z,22.63
2022-08-23T22:10:58.357Z,22.56
2022-08-23T22:13:28.837Z,22.55
2022-08-23T22:15:56.224Z,22.45
2022-08-23T22:18:22.834Z,22.41
2022-08-23T22:20:49.421Z,22.33
2022-08-23T22:23:15.862Z,22.38
2022-08-23T22:25:42.511Z,22.32
2022-08-23T22:28:09.115Z,22.27
2022-08-23T22:30:35.687Z,22.29
2022-08-23T22:33:03.334Z,22.24
2022-08-23T22:35:34.753Z,22.25
2022-08-23T22:38:13.736Z,22.15
2022-08-23T22:40:50.932Z,22.23
2022-08-23T22:43:23.854Z,22.16
2022-08-23T22:46:04.827Z,22.08
2022-08-23T22:48:37.142Z,22.05
2022-08-23T22:51:04.179Z,22.02
2022-08-23T22:53:31.343Z,22.00
2022-08-23T22:55:58.241Z,21.90
2022-08-23T22:58:26.299Z,21.91
2022-08-23T23:00:52.844Z,21.95
2022-08-23T23:03:20.138Z,21.78
2022-08-23T23:05:48.101Z,21.75
2022-08-23T23:08:27.152Z,21.72
2022-08-23T23:11:00.622Z,21.78
2022-08-23T23:13:31.605Z,21.72
2022-08-23T23:16:02.436Z,21.67
2022-08-23T23:18:33.080Z,21.74
2022-08-23T23:21:03.111Z,21.78
2022-08-23T23:23:32.641Z,21.67
2022-08-23T23:26:00.595Z,21.59
2022-08-23T23:28:27.586Z,21.60
2022-08-23T23:30:55.523Z,21.53
2022-08-23T23:33:22.308Z,21.49
2022-08-23T23:35:49.345Z,21.49
2022-08-23T23:38:17.598Z,21.46
2022-08-23T23:40:44.414Z,21.36
2022-08-23T23:43:12.989Z,21.27
2022-08-23T23:45:40.991Z,21.25
2022-08-23T23:48:08.249Z,21.21
2022-08-23T23:50:35.718Z,21.17
2022-08-23T23:53:03.165Z,21.11
2022-08-23T23:55:33.521Z,21.00
2022-08-23T23:58:02.633Z,21.05
